sensor_id;sensor_type;location;lat;lon;timestamp;pressure;altitude;pressure_sealevel;temperature;humidity
75886;BME280;64561;44.018;10.144;2023-03-01T00:01:10;101363.00;;;7.54;68.05
75886;BME280;64561;44.018;10.144;2023-03-01T00:03:40;101358.50;;;7.48;67.85
75886;BME280;64561;44.018;10.144;2023-03-01T00:06:08;101363.44;;;7.26;68.25
75886;BME280;64561;44.018;10.144;2023-03-01T00:08:35;101356.63;;;7.07;69.08
75886;BME280;64561;44.018;10.144;2023-03-01T00:11:06;101355.53;;;7.20;68.99
75886;BME280;64561;44.018;10.144;2023-03-01T00:13:35;101346.50;;;7.26;69.63
75886;BME280;64561;44.018;10.144;2023-03-01T00:16:07;101353.44;;;7.11;70.03
75886;BME280;64561;44.018;10.144;2023-03-01T00:18:34;101353.56;;;7.14;70.28
75886;BME280;64561;44.018;10.144;2023-03-01T00:21:01;101355.56;;;7.21;70.33
75886;BME280;64561;44.018;10.144;2023-03-01T00:23:28;101345.19;;;7.17;70.37
75886;BME280;64561;44.018;10.144;2023-03-01T00:25:55;101342.84;;;7.21;70.95
75886;BME280;64561;44.018;10.144;2023-03-01T00:28:23;101345.69;;;7.27;70.83
75886;BME280;64561;44.018;10.144;2023-03-01T00:30:49;101344.91;;;7.28;71.55
75886;BME280;64561;44.018;10.144;2023-03-01T00:33:17;101339.38;;;7.19;71.00
75886;BME280;64561;44.018;10.144;2023-03-01T00:35:44;101340.97;;;7.17;71.86
75886;BME280;64561;44.018;10.144;2023-03-01T00:38:11;101343.72;;;7.22;72.22
75886;BME280;64561;44.018;10.144;2023-03-01T00:40:38;101346.50;;;7.26;72.09
75886;BME280;64561;44.018;10.144;2023-03-01T00:43:05;101344.91;;;7.28;71.85
75886;BME280;64561;44.018;10.144;2023-03-01T00:45:32;101358.53;;;7.30;72.03
75886;BME280;64561;44.018;10.144;2023-03-01T00:47:59;101344.94;;;7.30;71.70
75886;BME280;64561;44.018;10.144;2023-03-01T00:50:27;101346.03;;;7.35;72.61
75886;BME280;64561;44.018;10.144;2023-03-01T00:52:55;101339.28;;;7.36;72.30
75886;BME280;64561;44.018;10.144;2023-03-01T00:55:22;101337.69;;;7.38;72.73
75886;BME280;64561;44.018;10.144;2023-03-01T00:57:50;101334.03;;;7.32;72.70
75886;BME280;64561;44.018;10.144;2023-03-01T01:00:18;101337.72;;;7.39;72.01
75886;BME280;64561;44.018;10.144;2023-03-01T01:02:46;101338.59;;;7.40;72.33
75886;BME280;64561;44.018;10.144;2023-03-01T01:05:14;101342.81;;;7.39;73.26
75886;BME280;64561;44.018;10.144;2023-03-01T01:07:41;101336.06;;;7.40;73.26
75886;BME280;64561;44.018;10.144;2023-03-01T01:10:08;101337.88;;;7.42;71.70
75886;BME280;64561;44.018;10.144;2023-03-01T01:12:39;101338.94;;;7.47;72.13
75886;BME280;64561;44.018;10.144;2023-03-01T01:15:06;101341.81;;;7.55;72.17
75886;BME280;64561;44.018;10.144;2023-03-01T01:17:34;101336.88;;;7.58;72.28
75886;BME280;64561;44.018;10.144;2023-03-01T01:20:01;101345.06;;;7.70;71.67
75886;BME280;64561;44.018;10.144;2023-03-01T01:22:28;101347.00;;;7.76;71.67
75886;BME280;64561;44.018;10.144;2023-03-01T01:24:55;101350.69;;;7.83;71.60
75886;BME280;64561;44.018;10.144;2023-03-01T01:27:22;101343.97;;;7.85;71.91
75886;BME280;64561;44.018;10.144;2023-03-01T01:29:49;101338.22;;;7.89;71.34
75886;BME280;64561;44.018;10.144;2023-03-01T01:32:16;101329.16;;;7.95;71.51
75886;BME280;64561;44.018;10.144;2023-03-01T01:34:43;101330.97;;;7.98;70.68
75886;BME280;64561;44.018;10.144;2023-03-01T01:37:10;101336.97;;;8.00;70.55
75886;BME280;64561;44.018;10.144;2023-03-01T01:39:37;101328.22;;;7.93;71.11
75886;BME280;64561;44.018;10.144;2023-03-01T01:42:04;101321.13;;;7.86;71.49
75886;BME280;64561;44.018;10.144;2023-03-01T01:44:33;101320.38;;;7.69;71.69
75886;BME280;64561;44.018;10.144;2023-03-01T01:47:06;101320.34;;;7.68;71.48
75886;BME280;64561;44.018;10.144;2023-03-01T01:49:54;101321.81;;;7.63;71.30
75886;BME280;64561;44.018;10.144;2023-03-01T01:52:31;101313.16;;;7.59;71.46
75886;BME280;64561;44.018;10.144;2023-03-01T01:55:07;101317.38;;;7.59;72.22
75886;BME280;64561;44.018;10.144;2023-03-01T01:58:08;101299.16;;;7.69;71.48
75886;BME280;64561;44.018;10.144;2023-03-01T02:00:37;101300.13;;;7.72;70.08
75886;BME280;64561;44.018;10.144;2023-03-01T02:03:11;101299.78;;;7.84;67.67
75886;BME280;64561;44.018;10.144;2023-03-01T02:05:47;101301.59;;;7.87;66.88
75886;BME280;64561;44.018;10.144;2023-03-01T02:08:23;101295.03;;;7.92;65.54
75886;BME280;64561;44.018;10.144;2023-03-01T02:10:51;101287.66;;;7.98;64.59
75886;BME280;64561;44.018;10.144;2023-03-01T02:13:19;101283.06;;;8.10;63.25
75886;BME280;64561;44.018;10.144;2023-03-01T02:15:46;101282.31;;;8.13;62.92
75886;BME280;64561;44.018;10.144;2023-03-01T02:18:18;101282.44;;;8.16;62.96
75886;BME280;64561;44.018;10.144;2023-03-01T02:23:17;101289.53;;;8.23;61.90
75886;BME280;64561;44.018;10.144;2023-03-01T02:30:44;101273.38;;;8.22;61.32
75886;BME280;64561;44.018;10.144;2023-03-01T02:33:31;101276.97;;;8.28;61.01
75886;BME280;64561;44.018;10.144;2023-03-01T02:36:01;101272.25;;;8.37;61.76
75886;BME280;64561;44.018;10.144;2023-03-01T02:38:31;101276.44;;;8.36;63.08
75886;BME280;64561;44.018;10.144;2023-03-01T02:40:58;101267.03;;;8.34;65.40
75886;BME280;64561;44.018;10.144;2023-03-01T02:43:30;101259.88;;;8.25;63.20
75886;BME280;64561;44.018;10.144;2023-03-01T02:46:08;101258.06;;;8.22;63.37
75886;BME280;64561;44.018;10.144;2023-03-01T02:48:48;101254.78;;;8.25;64.00
75886;BME280;64561;44.018;10.144;2023-03-01T02:51:42;101249.06;;;8.31;64.22
75886;BME280;64561;44.018;10.144;2023-03-01T02:56:40;101229.34;;;8.47;65.78
75886;BME280;64561;44.018;10.144;2023-03-01T02:59:08;101215.13;;;8.54;65.75
75886;BME280;64561;44.018;10.144;2023-03-01T03:01:36;101208.19;;;8.50;65.72
75886;BME280;64561;44.018;10.144;2023-03-01T03:04:06;101205.53;;;8.47;67.09
75886;BME280;64561;44.018;10.144;2023-03-01T03:06:33;101198.56;;;8.43;66.92
75886;BME280;64561;44.018;10.144;2023-03-01T03:09:00;101198.50;;;8.41;69.41
75886;BME280;64561;44.018;10.144;2023-03-01T03:11:27;101205.38;;;8.42;69.58
75886;BME280;64561;44.018;10.144;2023-03-01T03:13:54;101200.16;;;8.39;71.64
75886;BME280;64561;44.018;10.144;2023-03-01T03:16:22;101188.91;;;8.36;71.12
75886;BME280;64561;44.018;10.144;2023-03-01T03:18:49;101181.13;;;8.33;72.01
75886;BME280;64561;44.018;10.144;2023-03-01T03:21:16;101180.03;;;8.26;72.59
75886;BME280;64561;44.018;10.144;2023-03-01T03:23:43;101168.00;;;8.22;73.06
75886;BME280;64561;44.018;10.144;2023-03-01T03:26:10;101161.31;;;8.25;72.79
75886;BME280;64561;44.018;10.144;2023-03-01T03:28:39;101171.41;;;8.22;73.58
75886;BME280;64561;44.018;10.144;2023-03-01T03:31:07;101157.59;;;8.17;73.71
75886;BME280;64561;44.018;10.144;2023-03-01T03:33:34;101154.25;;;8.18;73.52
75886;BME280;64561;44.018;10.144;2023-03-01T03:36:01;101149.84;;;8.14;74.09
75886;BME280;64561;44.018;10.144;2023-03-01T03:38:28;101155.75;;;8.13;73.91
75886;BME280;64561;44.018;10.144;2023-03-01T03:41:06;101148.94;;;8.12;74.50
75886;BME280;64561;44.018;10.144;2023-03-01T03:43:36;101159.38;;;8.18;74.28
75886;BME280;64561;44.018;10.144;2023-03-01T03:46:03;101159.47;;;8.21;73.59
75886;BME280;64561;44.018;10.144;2023-03-01T03:48:37;101155.78;;;8.15;73.78
75886;BME280;64561;44.018;10.144;2023-03-01T03:51:05;101159.25;;;8.15;74.55
75886;BME280;64561;44.018;10.144;2023-03-01T03:53:32;101162.34;;;8.08;75.61
75886;BME280;64561;44.018;10.144;2023-03-01T03:55:59;101168.13;;;8.04;75.30
75886;BME280;64561;44.018;10.144;2023-03-01T03:58:26;101158.94;;;8.08;75.52
75886;BME280;64561;44.018;10.144;2023-03-01T04:00:55;101158.09;;;8.09;74.31
75886;BME280;64561;44.018;10.144;2023-03-01T04:03:24;101158.94;;;8.08;74.08
75886;BME280;64561;44.018;10.144;2023-03-01T04:05:52;101162.41;;;8.10;74.24
75886;BME280;64561;44.018;10.144;2023-03-01T04:08:21;101160.00;;;8.13;74.21
75886;BME280;64561;44.018;10.144;2023-03-01T04:10:51;101154.03;;;8.12;74.05
75886;BME280;64561;44.018;10.144;2023-03-01T04:13:22;101143.69;;;8.09;73.37
75886;BME280;64561;44.018;10.144;2023-03-01T04:15:50;101135.91;;;8.06;73.67
75886;BME280;64561;44.018;10.144;2023-03-01T04:18:19;101139.41;;;8.08;74.00
75886;BME280;64561;44.018;10.144;2023-03-01T04:20:46;101135.47;;;8.16;74.12
75886;BME280;64561;44.018;10.144;2023-03-01T04:23:16;101138.78;;;8.14;74.44
75886;BME280;64561;44.018;10.144;2023-03-01T04:25:57;101119.31;;;8.16;74.53
75886;BME280;64561;44.018;10.144;2023-03-01T04:28:33;101125.06;;;8.10;75.00
75886;BME280;64561;44.018;10.144;2023-03-01T04:31:08;101121.97;;;7.96;76.89
75886;BME280;64561;44.018;10.144;2023-03-01T04:33:45;101121.78;;;7.92;78.07
75886;BME280;64561;44.018;10.144;2023-03-01T04:36:13;101112.22;;;7.86;77.66
75886;BME280;64561;44.018;10.144;2023-03-01T04:38:41;101111.78;;;7.75;77.83
75886;BME280;64561;44.018;10.144;2023-03-01T04:41:10;101118.88;;;7.83;77.94
75886;BME280;64561;44.018;10.144;2023-03-01T04:43:37;101120.63;;;7.84;78.11
75886;BME280;64561;44.018;10.144;2023-03-01T04:46:07;101114.03;;;7.89;78.51
75886;BME280;64561;44.018;10.144;2023-03-01T04:48:42;101114.16;;;7.92;77.99
75886;BME280;64561;44.018;10.144;2023-03-01T04:51:10;101116.84;;;7.96;77.53
75886;BME280;64561;44.018;10.144;2023-03-01T04:53:41;101116.19;;;8.00;77.28
75886;BME280;64561;44.018;10.144;2023-03-01T04:56:09;101124.00;;;8.05;76.89
75886;BME280;64561;44.018;10.144;2023-03-01T04:58:36;101123.97;;;8.04;76.72
75886;BME280;64561;44.018;10.144;2023-03-01T05:01:09;101121.44;;;8.05;76.97
75886;BME280;64561;44.018;10.144;2023-03-01T05:03:46;101140.34;;;8.10;76.85
75886;BME280;64561;44.018;10.144;2023-03-01T05:06:14;101144.63;;;8.11;76.81
75886;BME280;64561;44.018;10.144;2023-03-01T05:08:42;101139.59;;;8.13;76.29
75886;BME280;64561;44.018;10.144;2023-03-01T05:11:10;101136.94;;;8.10;77.03
75886;BME280;64561;44.018;10.144;2023-03-01T05:13:38;101136.03;;;8.09;77.33
75886;BME280;64561;44.018;10.144;2023-03-01T05:16:07;101138.59;;;8.09;77.44
75886;BME280;64561;44.018;10.144;2023-03-01T05:18:39;101132.38;;;8.02;77.13
75886;BME280;64561;44.018;10.144;2023-03-01T05:21:11;101137.69;;;8.07;77.58
75886;BME280;64561;44.018;10.144;2023-03-01T05:23:39;101131.66;;;8.05;77.45
75886;BME280;64561;44.018;10.144;2023-03-01T05:26:06;101127.59;;;8.10;78.67
75886;BME280;64561;44.018;10.144;2023-03-01T05:28:47;101130.91;;;8.08;78.90
75886;BME280;64561;44.018;10.144;2023-03-01T05:31:14;101131.84;;;8.10;78.64
75886;BME280;64561;44.018;10.144;2023-03-01T05:33:42;101124.22;;;8.11;78.08
75886;BME280;64561;44.018;10.144;2023-03-01T05:36:10;101117.44;;;8.12;78.04
75886;BME280;64561;44.018;10.144;2023-03-01T05:38:36;101112.31;;;8.10;77.58
75886;BME280;64561;44.018;10.144;2023-03-01T05:41:03;101108.16;;;8.12;77.68
75886;BME280;64561;44.018;10.144;2023-03-01T05:43:31;101111.94;;;8.23;77.21
75886;BME280;64561;44.018;10.144;2023-03-01T05:46:01;101109.25;;;8.19;76.93
75886;BME280;64561;44.018;10.144;2023-03-01T05:48:28;101115.81;;;8.12;77.28
75886;BME280;64561;44.018;10.144;2023-03-01T05:50:59;101110.75;;;8.14;76.46
75886;BME280;64561;44.018;10.144;2023-03-01T05:53:27;101106.50;;;8.14;76.00
75886;BME280;64561;44.018;10.144;2023-03-01T05:55:53;101115.84;;;8.14;77.55
75886;BME280;64561;44.018;10.144;2023-03-01T05:58:20;101115.72;;;8.33;77.06
75886;BME280;64561;44.018;10.144;2023-03-01T06:00:49;101106.00;;;8.23;76.17
75886;BME280;64561;44.018;10.144;2023-03-01T06:03:16;101119.38;;;8.17;76.24
75886;BME280;64561;44.018;10.144;2023-03-01T06:05:44;101121.81;;;8.14;76.99
75886;BME280;64561;44.018;10.144;2023-03-01T06:08:11;101125.31;;;8.18;77.76
75886;BME280;64561;44.018;10.144;2023-03-01T06:10:39;101120.34;;;7.98;77.89
75886;BME280;64561;44.018;10.144;2023-03-01T06:13:06;101119.59;;;8.01;76.91
75886;BME280;64561;44.018;10.144;2023-03-01T06:15:32;101128.94;;;8.00;78.29
75886;BME280;64561;44.018;10.144;2023-03-01T06:17:59;101125.59;;;8.03;78.00
75886;BME280;64561;44.018;10.144;2023-03-01T06:20:28;101126.63;;;8.07;77.69
75886;BME280;64561;44.018;10.144;2023-03-01T06:22:55;101120.59;;;8.05;77.52
75886;BME280;64561;44.018;10.144;2023-03-01T06:25:24;101126.84;;;8.13;77.39
75886;BME280;64561;44.018;10.144;2023-03-01T06:27:51;101135.47;;;8.16;77.76
75886;BME280;64561;44.018;10.144;2023-03-01T06:30:23;101140.94;;;8.25;76.95
75886;BME280;64561;44.018;10.144;2023-03-01T06:32:50;101137.44;;;8.23;77.47
75886;BME280;64561;44.018;10.144;2023-03-01T06:35:18;101138.31;;;8.24;77.25
75886;BME280;64561;44.018;10.144;2023-03-01T06:37:46;101147.75;;;8.27;77.29
75886;BME280;64561;44.018;10.144;2023-03-01T06:40:14;101153.84;;;8.30;77.24
75886;BME280;64561;44.018;10.144;2023-03-01T06:42:43;101143.53;;;8.27;77.07
75886;BME280;64561;44.018;10.144;2023-03-01T06:45:14;101152.31;;;8.34;77.00
75886;BME280;64561;44.018;10.144;2023-03-01T06:47:41;101165.25;;;8.38;76.31
75886;BME280;64561;44.018;10.144;2023-03-01T06:50:08;101172.13;;;8.41;76.03
75886;BME280;64561;44.018;10.144;2023-03-01T06:52:35;101175.63;;;8.43;76.15
75886;BME280;64561;44.018;10.144;2023-03-01T06:55:03;101181.63;;;8.45;75.99
75886;BME280;64561;44.018;10.144;2023-03-01T06:57:30;101181.75;;;8.48;75.50
75886;BME280;64561;44.018;10.144;2023-03-01T06:59:57;101197.41;;;8.57;75.85
75886;BME280;64561;44.018;10.144;2023-03-01T07:02:24;101202.09;;;8.69;75.45
75886;BME280;64561;44.018;10.144;2023-03-01T07:04:52;101210.66;;;8.69;75.03
75886;BME280;64561;44.018;10.144;2023-03-01T07:07:19;101220.78;;;8.68;75.40
75886;BME280;64561;44.018;10.144;2023-03-01T07:09:46;101230.22;;;8.70;75.28
75886;BME280;64561;44.018;10.144;2023-03-01T07:12:14;101245.13;;;8.82;75.56
75886;BME280;64561;44.018;10.144;2023-03-01T07:14:43;101257.06;;;8.83;75.32
75886;BME280;64561;44.018;10.144;2023-03-01T07:17:10;101253.78;;;8.86;75.17
75886;BME280;64561;44.018;10.144;2023-03-01T07:19:37;101256.13;;;8.81;75.63
75886;BME280;64561;44.018;10.144;2023-03-01T07:22:04;101258.75;;;8.83;75.77
75886;BME280;64561;44.018;10.144;2023-03-01T07:24:31;101270.03;;;8.88;74.46
75886;BME280;64561;44.018;10.144;2023-03-01T07:26:57;101262.13;;;8.82;74.44
75886;BME280;64561;44.018;10.144;2023-03-01T07:29:24;101268.84;;;8.80;74.84
75886;BME280;64561;44.018;10.144;2023-03-01T07:31:51;101282.44;;;8.79;74.82
75886;BME280;64561;44.018;10.144;2023-03-01T07:34:18;101279.88;;;8.79;75.34
75886;BME280;64561;44.018;10.144;2023-03-01T07:36:45;101288.50;;;8.82;75.35
75886;BME280;64561;44.018;10.144;2023-03-01T07:39:12;101288.66;;;8.87;74.95
75886;BME280;64561;44.018;10.144;2023-03-01T07:41:38;101295.53;;;8.88;75.11
75886;BME280;64561;44.018;10.144;2023-03-01T07:44:05;101304.72;;;8.84;75.61
75886;BME280;64561;44.018;10.144;2023-03-01T07:46:32;101308.94;;;8.82;76.66
75886;BME280;64561;44.018;10.144;2023-03-01T07:48:59;101320.00;;;8.83;77.16
75886;BME280;64561;44.018;10.144;2023-03-01T07:51:26;101325.03;;;8.81;76.20
75886;BME280;64561;44.018;10.144;2023-03-01T07:53:53;101324.03;;;8.78;76.63
75886;BME280;64561;44.018;10.144;2023-03-01T07:56:20;101328.97;;;8.73;76.30
75886;BME280;64561;44.018;10.144;2023-03-01T07:58:48;101340.78;;;8.71;76.10
75886;BME280;64561;44.018;10.144;2023-03-01T08:01:18;101345.03;;;8.70;75.90
75886;BME280;64561;44.018;10.144;2023-03-01T08:03:46;101349.38;;;8.73;76.14
75886;BME280;64561;44.018;10.144;2023-03-01T08:06:15;101355.16;;;8.69;76.64
75886;BME280;64561;44.018;10.144;2023-03-01T08:08:42;101355.72;;;8.62;76.54
75886;BME280;64561;44.018;10.144;2023-03-01T08:11:14;101365.69;;;8.56;77.20
75886;BME280;64561;44.018;10.144;2023-03-01T08:13:42;101364.69;;;8.52;77.83
75886;BME280;64561;44.018;10.144;2023-03-01T08:16:11;101371.66;;;8.56;78.04
75886;BME280;64561;44.018;10.144;2023-03-01T08:18:39;101377.56;;;8.55;78.46
75886;BME280;64561;44.018;10.144;2023-03-01T08:21:13;101380.00;;;8.52;77.84
75886;BME280;64561;44.018;10.144;2023-03-01T08:23:40;101375.69;;;8.51;78.51
75886;BME280;64561;44.018;10.144;2023-03-01T08:26:16;101368.03;;;8.51;78.70
75886;BME280;64561;44.018;10.144;2023-03-01T08:28:44;101362.06;;;8.51;78.56
75886;BME280;64561;44.018;10.144;2023-03-01T08:31:17;101371.47;;;8.52;78.80
75886;BME280;64561;44.018;10.144;2023-03-01T08:33:46;101369.69;;;8.49;80.08
75886;BME280;64561;44.018;10.144;2023-03-01T08:36:17;101366.31;;;8.50;80.37
75886;BME280;64561;44.018;10.144;2023-03-01T08:38:44;101373.00;;;8.48;80.75
75886;BME280;64561;44.018;10.144;2023-03-01T08:41:12;101370.53;;;8.50;80.65
75886;BME280;64561;44.018;10.144;2023-03-01T08:43:39;101377.25;;;8.47;81.21
75886;BME280;64561;44.018;10.144;2023-03-01T08:46:06;101366.78;;;8.41;81.25
75886;BME280;64561;44.018;10.144;2023-03-01T08:48:33;101362.34;;;8.37;81.71
75886;BME280;64561;44.018;10.144;2023-03-01T08:51:10;101362.28;;;8.36;81.49
75886;BME280;64561;44.018;10.144;2023-03-01T08:53:38;101358.72;;;8.32;81.89
75886;BME280;64561;44.018;10.144;2023-03-01T08:56:06;101357.06;;;8.33;82.21
75886;BME280;64561;44.018;10.144;2023-03-01T08:58:33;101349.53;;;8.36;82.08
75886;BME280;64561;44.018;10.144;2023-03-01T09:01:00;101353.63;;;8.32;81.83
75886;BME280;64561;44.018;10.144;2023-03-01T09:03:27;101349.34;;;8.31;82.30
75886;BME280;64561;44.018;10.144;2023-03-01T09:06:00;101356.75;;;8.25;82.27
75886;BME280;64561;44.018;10.144;2023-03-01T09:08:27;101356.38;;;8.37;82.41
75886;BME280;64561;44.018;10.144;2023-03-01T09:10:54;101351.44;;;8.40;81.24
75886;BME280;64561;44.018;10.144;2023-03-01T09:13:21;101355.19;;;8.29;81.46
75886;BME280;64561;44.018;10.144;2023-03-01T09:15:51;101352.44;;;8.24;81.72
75886;BME280;64561;44.018;10.144;2023-03-01T09:18:18;101359.81;;;8.18;82.54
75886;BME280;64561;44.018;10.144;2023-03-01T09:20:45;101355.50;;;8.15;83.22
75886;BME280;64561;44.018;10.144;2023-03-01T09:23:11;101360.78;;;8.20;82.42
75886;BME280;64561;44.018;10.144;2023-03-01T09:25:38;101361.47;;;8.16;82.57
75886;BME280;64561;44.018;10.144;2023-03-01T09:28:05;101369.09;;;8.16;82.83
75886;BME280;64561;44.018;10.144;2023-03-01T09:30:32;101371.06;;;8.21;83.44
75886;BME280;64561;44.018;10.144;2023-03-01T09:32:59;101370.84;;;8.17;83.46
75886;BME280;64561;44.018;10.144;2023-03-01T09:35:26;101381.25;;;8.21;84.08
75886;BME280;64561;44.018;10.144;2023-03-01T09:37:53;101388.06;;;8.22;83.74
75886;BME280;64561;44.018;10.144;2023-03-01T09:40:23;101383.03;;;8.24;84.05
75886;BME280;64561;44.018;10.144;2023-03-01T09:43:11;101395.28;;;8.33;83.65
75886;BME280;64561;44.018;10.144;2023-03-01T09:45:44;101390.81;;;8.27;83.45
75886;BME280;64561;44.018;10.144;2023-03-01T09:48:17;101390.50;;;8.19;84.17
75886;BME280;64561;44.018;10.144;2023-03-01T09:50:46;101392.06;;;8.16;84.23
75886;BME280;64561;44.018;10.144;2023-03-01T09:53:19;101395.47;;;8.16;83.87
75886;BME280;64561;44.018;10.144;2023-03-01T09:56:12;101405.66;;;8.16;84.02
75886;BME280;64561;44.018;10.144;2023-03-01T10:06:57;101395.94;;;8.08;83.64
75886;BME280;64561;44.018;10.144;2023-03-01T10:09:32;101392.44;;;8.06;84.34
75886;BME280;64561;44.018;10.144;2023-03-01T10:12:01;101385.63;;;8.05;84.31
75886;BME280;64561;44.018;10.144;2023-03-01T10:14:39;101383.13;;;8.06;84.90
75886;BME280;64561;44.018;10.144;2023-03-01T10:17:55;101379.38;;;7.98;85.60
75886;BME280;64561;44.018;10.144;2023-03-01T10:20:25;101385.22;;;7.95;84.30
75886;BME280;64561;44.018;10.144;2023-03-01T10:22:52;101381.25;;;8.02;84.34
75886;BME280;64561;44.018;10.144;2023-03-01T10:25:36;101380.16;;;7.97;84.05
75886;BME280;64561;44.018;10.144;2023-03-01T10:30:50;101366.38;;;7.72;84.17
75886;BME280;64561;44.018;10.144;2023-03-01T10:33:37;101372.19;;;7.70;84.12
75886;BME280;64561;44.018;10.144;2023-03-01T10:36:06;101370.41;;;7.67;84.10
75886;BME280;64561;44.018;10.144;2023-03-01T10:38:51;101366.50;;;7.75;84.56
75886;BME280;64561;44.018;10.144;2023-03-01T10:41:21;101357.81;;;7.70;84.34
75886;BME280;64561;44.018;10.144;2023-03-01T10:43:53;101370.41;;;7.67;85.71
75886;BME280;64561;44.018;10.144;2023-03-01T10:46:32;101356.50;;;7.61;83.51
75886;BME280;64561;44.018;10.144;2023-03-01T10:51:46;101360.59;;;7.57;84.28
75886;BME280;64561;44.018;10.144;2023-03-01T10:54:21;101363.63;;;7.68;84.12
75886;BME280;64561;44.018;10.144;2023-03-01T10:56:54;101356.59;;;7.62;84.17
75886;BME280;64561;44.018;10.144;2023-03-01T10:59:27;101353.63;;;7.53;83.87
75886;BME280;64561;44.018;10.144;2023-03-01T11:07:23;101341.91;;;7.37;84.87
75886;BME280;64561;44.018;10.144;2023-03-01T11:09:50;101336.59;;;7.32;86.24
75886;BME280;64561;44.018;10.144;2023-03-01T11:12:17;101332.31;;;7.31;85.53
75886;BME280;64561;44.018;10.144;2023-03-01T11:14:49;101329.81;;;7.33;85.90
75886;BME280;64561;44.018;10.144;2023-03-01T11:17:37;101328.41;;;7.40;85.78
75886;BME280;64561;44.018;10.144;2023-03-01T11:20:37;101339.94;;;7.51;86.39
75886;BME280;64561;44.018;10.144;2023-03-01T11:23:10;101342.13;;;7.61;86.70
75886;BME280;64561;44.018;10.144;2023-03-01T11:25:40;101344.03;;;7.67;86.99
75886;BME280;64561;44.018;10.144;2023-03-01T11:28:13;101347.63;;;7.70;87.18
75886;BME280;64561;44.018;10.144;2023-03-01T11:33:39;101358.94;;;7.77;86.72
75886;BME280;64561;44.018;10.144;2023-03-01T11:36:31;101368.25;;;7.76;87.00
75886;BME280;64561;44.018;10.144;2023-03-01T11:41:49;101375.16;;;7.79;87.55
75886;BME280;64561;44.018;10.144;2023-03-01T11:44:23;101371.00;;;7.81;87.25
75886;BME280;64561;44.018;10.144;2023-03-01T11:49:53;101365.03;;;7.81;87.04
75886;BME280;64561;44.018;10.144;2023-03-01T11:55:36;101372.91;;;7.85;87.21
75886;BME280;64561;44.018;10.144;2023-03-01T12:06:59;101358.38;;;7.84;86.89
75886;BME280;64561;44.018;10.144;2023-03-01T12:28:55;101354.38;;;7.89;86.80
75886;BME280;64561;44.018;10.144;2023-03-01T12:39:52;101335.47;;;7.84;84.40
75886;BME280;64561;44.018;10.144;2023-03-01T12:50:42;101324.34;;;7.63;84.77
75886;BME280;64561;44.018;10.144;2023-03-01T12:53:22;101319.94;;;7.59;85.26
75886;BME280;64561;44.018;10.144;2023-03-01T12:55:52;101318.25;;;7.59;84.79
75886;BME280;64561;44.018;10.144;2023-03-01T12:58:26;101319.00;;;7.56;85.70
75886;BME280;64561;44.018;10.144;2023-03-01T13:01:22;101323.94;;;7.53;86.39
75886;BME280;64561;44.018;10.144;2023-03-01T13:06:50;101312.75;;;7.50;84.31
75886;BME280;64561;44.018;10.144;2023-03-01T13:11:51;101309.94;;;7.44;83.59
75886;BME280;64561;44.018;10.144;2023-03-01T13:16:52;101286.94;;;7.42;84.82
75886;BME280;64561;44.018;10.144;2023-03-01T13:19:24;101289.50;;;7.42;85.45
75886;BME280;64561;44.018;10.144;2023-03-01T13:21:53;101285.13;;;7.40;86.01
75886;BME280;64561;44.018;10.144;2023-03-01T13:24:36;101290.22;;;7.40;86.67
75886;BME280;64561;44.018;10.144;2023-03-01T13:33:32;101284.47;;;7.44;86.01
75886;BME280;64561;44.018;10.144;2023-03-01T13:36:01;101283.94;;;7.51;86.57
75886;BME280;64561;44.018;10.144;2023-03-01T13:38:56;101281.66;;;7.57;86.42
75886;BME280;64561;44.018;10.144;2023-03-01T13:44:26;101272.69;;;7.65;86.22
75886;BME280;64561;44.018;10.144;2023-03-01T13:52:40;101269.78;;;7.57;86.32
75886;BME280;64561;44.018;10.144;2023-03-01T13:57:47;101270.13;;;7.65;86.43
75886;BME280;64561;44.018;10.144;2023-03-01T14:03:01;101269.06;;;7.79;85.47
75886;BME280;64561;44.018;10.144;2023-03-01T14:05:33;101258.53;;;7.72;85.55
75886;BME280;64561;44.018;10.144;2023-03-01T14:08:00;101265.34;;;7.73;85.20
75886;BME280;64561;44.018;10.144;2023-03-01T14:10:39;101265.31;;;7.71;85.28
75886;BME280;64561;44.018;10.144;2023-03-01T14:13:24;101264.47;;;7.72;85.22
75886;BME280;64561;44.018;10.144;2023-03-01T14:16:20;101268.78;;;7.73;86.23
75886;BME280;64561;44.018;10.144;2023-03-01T14:19:18;101266.38;;;7.76;85.88
75886;BME280;64561;44.018;10.144;2023-03-01T14:22:19;101269.97;;;7.82;85.70
75886;BME280;64561;44.018;10.144;2023-03-01T14:25:02;101279.16;;;7.78;86.08
75886;BME280;64561;44.018;10.144;2023-03-01T14:27:37;101278.22;;;7.76;85.82
75886;BME280;64561;44.018;10.144;2023-03-01T14:30:13;101278.28;;;7.77;85.77
75886;BME280;64561;44.018;10.144;2023-03-01T14:32:41;101266.63;;;7.83;86.23
75886;BME280;64561;44.018;10.144;2023-03-01T14:35:23;101264.75;;;7.78;85.88
75886;BME280;64561;44.018;10.144;2023-03-01T14:37:50;101261.41;;;7.79;85.78
75886;BME280;64561;44.018;10.144;2023-03-01T14:40:24;101270.66;;;7.77;85.65
75886;BME280;64561;44.018;10.144;2023-03-01T14:42:51;101263.88;;;7.78;85.17
75886;BME280;64561;44.018;10.144;2023-03-01T14:45:19;101262.28;;;7.80;86.06
75886;BME280;64561;44.018;10.144;2023-03-01T14:47:47;101261.41;;;7.79;85.64
75886;BME280;64561;44.018;10.144;2023-03-01T14:50:21;101264.09;;;7.83;86.28
75886;BME280;64561;44.018;10.144;2023-03-01T14:52:51;101252.25;;;7.85;86.46
75886;BME280;64561;44.018;10.144;2023-03-01T14:55:28;101243.88;;;7.87;85.37
75886;BME280;64561;44.018;10.144;2023-03-01T14:57:56;101245.34;;;7.82;85.73
75886;BME280;64561;44.018;10.144;2023-03-01T15:00:29;101242.03;;;7.83;85.11
75886;BME280;64561;44.018;10.144;2023-03-01T15:03:00;101238.13;;;7.91;85.65